Weather at Montgomery-Gibbs Executive Airport

Public forecast

Using degrees Fahrenheit for public forecast. Weather courtesy of forecast.io.

Current aviation weather report (METAR) for Montgomery-Gibbs Executive Airport

Retrieved 2021/10/16 15:53 UTC (1 hour ago):

KMYF 161553Z 14003KT 10SM CLR 22/M01 A3001 RMK AO2 SLP158 T02171011

Closest aviation forecast (TAF) to Montgomery-Gibbs Executive Airport

Forecast is more than 12 hours old.

Closest forecast is Miramar Marine Corps Air Station - Mitscher Field, 3.2 nm (5.9 km) N. Retrieved 2020/04/17 09:18 UTC (1 year ago):

TAF KNKX 171200Z 1709/1809 VRB05KT 9999 SCT030 QNH2992INS TEMPO 1709/1715 BKN010 TEMPO 1719/1801 24010G15KT T12/1710Z T22/1721Z